sensor_id;sensor_type;location;lat;lon;timestamp;pressure;altitude;pressure_sealevel;temperature;humidity
42247;BME280;27913;42.722;23.268;2022-10-17T00:01:42;96323.13;;;9.02;70.47
42247;BME280;27913;42.722;23.268;2022-10-17T00:04:07;96015.59;;;7.11;70.45
42247;BME280;27913;42.722;23.268;2022-10-17T00:06:33;96324.41;;;8.98;70.70
42247;BME280;27913;42.722;23.268;2022-10-17T00:08:59;96310.22;;;8.80;70.77
42247;BME280;27913;42.722;23.268;2022-10-17T00:11:25;96325.53;;;8.95;71.08
42247;BME280;27913;42.722;23.268;2022-10-17T00:13:53;96256.75;;;8.53;70.73
42247;BME280;27913;42.722;23.268;2022-10-17T00:16:30;96080.66;;;7.44;71.00
42247;BME280;27913;42.722;23.268;2022-10-17T00:18:57;96332.00;;;8.91;71.01
42247;BME280;27913;42.722;23.268;2022-10-17T00:21:23;96337.00;;;8.84;71.35
42247;BME280;27913;42.722;23.268;2022-10-17T00:23:49;96125.44;;;7.51;71.33
42247;BME280;27913;42.722;23.268;2022-10-17T00:26:15;96328.50;;;8.72;71.22
42247;BME280;27913;42.722;23.268;2022-10-17T00:28:41;96329.88;;;8.76;71.15
42247;BME280;27913;42.722;23.268;2022-10-17T00:31:10;96076.03;;;7.08;71.10
42247;BME280;27913;42.722;23.268;2022-10-17T00:33:35;96282.31;;;8.31;71.20
42247;BME280;27913;42.722;23.268;2022-10-17T00:36:10;96270.66;;;8.06;71.55
42247;BME280;27913;42.722;23.268;2022-10-17T00:38:38;96344.56;;;8.09;71.97
42247;BME280;27913;42.722;23.268;2022-10-17T00:41:05;96345.78;;;7.76;74.01
42247;BME280;27913;42.722;23.268;2022-10-17T00:46:51;96347.38;;;7.47;74.45
42247;BME280;27913;42.722;23.268;2022-10-17T00:49:16;96359.22;;;7.41;74.39
42247;BME280;27913;42.722;23.268;2022-10-17T00:51:46;96343.47;;;7.31;74.72
42247;BME280;27913;42.722;23.268;2022-10-17T00:54:15;96349.56;;;7.32;74.66
42247;BME280;27913;42.722;23.268;2022-10-17T00:56:42;96058.34;;;5.58;74.99
42247;BME280;27913;42.722;23.268;2022-10-17T00:59:08;96058.91;;;5.62;75.03
42247;BME280;27913;42.722;23.268;2022-10-17T01:04:11;96276.06;;;6.94;75.04
42247;BME280;27913;42.722;23.268;2022-10-17T01:06:37;96343.13;;;7.46;74.63
42247;BME280;27913;42.722;23.268;2022-10-17T01:09:03;96030.69;;;5.55;74.35
42247;BME280;27913;42.722;23.268;2022-10-17T01:11:34;96296.09;;;7.24;74.09
42247;BME280;27913;42.722;23.268;2022-10-17T01:14:20;96262.19;;;7.13;74.55
42247;BME280;27913;42.722;23.268;2022-10-17T01:16:57;96351.03;;;7.66;74.85
42247;BME280;27913;42.722;23.268;2022-10-17T01:22:25;96333.66;;;7.75;74.76
42247;BME280;27913;42.722;23.268;2022-10-17T01:30:46;96265.66;;;7.33;74.82
42247;BME280;27913;42.722;23.268;2022-10-17T01:33:56;96332.41;;;7.79;74.48
42247;BME280;27913;42.722;23.268;2022-10-17T01:38:53;96272.03;;;7.41;74.19
42247;BME280;27913;42.722;23.268;2022-10-17T01:47:16;96299.59;;;7.55;74.19
42247;BME280;27913;42.722;23.268;2022-10-17T01:49:44;96274.63;;;7.41;73.95
42247;BME280;27913;42.722;23.268;2022-10-17T01:52:22;96346.63;;;7.86;73.44
42247;BME280;27913;42.722;23.268;2022-10-17T01:55:11;96102.50;;;6.34;73.76
42247;BME280;27913;42.722;23.268;2022-10-17T01:57:45;96358.06;;;7.85;74.04
42247;BME280;27913;42.722;23.268;2022-10-17T02:00:19;96360.28;;;7.80;73.90
42247;BME280;27913;42.722;23.268;2022-10-17T02:02:47;96366.59;;;7.77;73.87
42247;BME280;27913;42.722;23.268;2022-10-17T02:05:16;96351.16;;;7.74;74.21
42247;BME280;27913;42.722;23.268;2022-10-17T02:07:43;96365.22;;;7.73;74.04
42247;BME280;27913;42.722;23.268;2022-10-17T02:10:17;96354.06;;;7.71;74.21
42247;BME280;27913;42.722;23.268;2022-10-17T02:13:34;96155.06;;;6.40;74.15
42247;BME280;27913;42.722;23.268;2022-10-17T02:19:18;96290.72;;;7.16;74.41
42247;BME280;27913;42.722;23.268;2022-10-17T02:22:06;96325.75;;;7.45;74.30
42247;BME280;27913;42.722;23.268;2022-10-17T02:27:23;96374.16;;;7.60;74.53
42247;BME280;27913;42.722;23.268;2022-10-17T02:30:00;96094.59;;;5.83;74.39
42247;BME280;27913;42.722;23.268;2022-10-17T02:32:34;96336.03;;;7.27;74.26
42247;BME280;27913;42.722;23.268;2022-10-17T02:35:05;96328.88;;;7.29;74.13
42247;BME280;27913;42.722;23.268;2022-10-17T02:37:33;96367.53;;;7.56;74.30
42247;BME280;27913;42.722;23.268;2022-10-17T02:40:01;96379.50;;;7.49;74.42
42247;BME280;27913;42.722;23.268;2022-10-17T02:42:28;96382.81;;;7.51;74.73
42247;BME280;27913;42.722;23.268;2022-10-17T02:44:58;96389.97;;;7.49;74.88
42247;BME280;27913;42.722;23.268;2022-10-17T02:47:39;96388.44;;;7.46;74.97
42247;BME280;27913;42.722;23.268;2022-10-17T02:50:08;96391.88;;;7.47;75.04
42247;BME280;27913;42.722;23.268;2022-10-17T02:52:39;96277.66;;;6.85;74.65
42247;BME280;27913;42.722;23.268;2022-10-17T02:55:17;96388.19;;;7.49;74.83
42247;BME280;27913;42.722;23.268;2022-10-17T03:00:12;96391.63;;;7.50;74.66
42247;BME280;27913;42.722;23.268;2022-10-17T03:02:50;96342.75;;;7.19;74.55
42247;BME280;27913;42.722;23.268;2022-10-17T03:05:27;96401.97;;;7.52;74.79
42247;BME280;27913;42.722;23.268;2022-10-17T03:07:53;96420.28;;;7.52;74.40
42247;BME280;27913;42.722;23.268;2022-10-17T03:10:20;96401.13;;;7.51;74.57
42247;BME280;27913;42.722;23.268;2022-10-17T03:12:46;96400.16;;;7.52;74.20
42247;BME280;27913;42.722;23.268;2022-10-17T03:15:11;96295.84;;;6.86;74.43
42247;BME280;27913;42.722;23.268;2022-10-17T03:17:37;96416.97;;;7.49;74.27
42247;BME280;27913;42.722;23.268;2022-10-17T03:20:04;96143.53;;;5.90;74.19
42247;BME280;27913;42.722;23.268;2022-10-17T03:22:30;96356.63;;;7.10;74.22
42247;BME280;27913;42.722;23.268;2022-10-17T03:24:56;96095.13;;;5.55;74.05
42247;BME280;27913;42.722;23.268;2022-10-17T03:27:21;96375.69;;;7.22;74.55
42247;BME280;27913;42.722;23.268;2022-10-17T03:29:47;96412.44;;;7.52;74.49
42247;BME280;27913;42.722;23.268;2022-10-17T03:32:12;96103.84;;;5.65;74.41
42247;BME280;27913;42.722;23.268;2022-10-17T03:34:38;96338.28;;;7.00;74.28
42247;BME280;27913;42.722;23.268;2022-10-17T03:37:03;96289.03;;;6.74;73.72
42247;BME280;27913;42.722;23.268;2022-10-17T03:39:29;96217.94;;;6.18;73.79
42247;BME280;27913;42.722;23.268;2022-10-17T03:41:55;96418.16;;;7.35;74.09
42247;BME280;27913;42.722;23.268;2022-10-17T03:44:20;96417.06;;;7.38;74.00
42247;BME280;27913;42.722;23.268;2022-10-17T03:46:45;96070.78;;;5.23;73.74
42247;BME280;27913;42.722;23.268;2022-10-17T03:49:11;96309.16;;;6.52;73.64
42247;BME280;27913;42.722;23.268;2022-10-17T03:51:36;96422.44;;;7.05;73.94
42247;BME280;27913;42.722;23.268;2022-10-17T03:54:02;96129.78;;;5.24;73.80
42247;BME280;27913;42.722;23.268;2022-10-17T03:56:27;96355.75;;;6.47;74.11
42247;BME280;27913;42.722;23.268;2022-10-17T03:58:54;96433.59;;;6.86;74.28
42247;BME280;27913;42.722;23.268;2022-10-17T04:01:20;96431.75;;;6.76;74.69
42247;BME280;27913;42.722;23.268;2022-10-17T04:03:53;96135.16;;;4.90;74.48
42247;BME280;27913;42.722;23.268;2022-10-17T04:06:20;96318.31;;;6.03;74.87
42247;BME280;27913;42.722;23.268;2022-10-17T04:08:46;96432.72;;;6.75;74.54
42247;BME280;27913;42.722;23.268;2022-10-17T04:11:17;96110.53;;;4.71;74.97
42247;BME280;27913;42.722;23.268;2022-10-17T04:13:44;96264.44;;;5.70;74.87
42247;BME280;27913;42.722;23.268;2022-10-17T04:16:12;96430.19;;;6.64;75.39
42247;BME280;27913;42.722;23.268;2022-10-17T04:18:38;96408.47;;;6.52;75.27
42247;BME280;27913;42.722;23.268;2022-10-17T04:21:04;96114.56;;;4.75;75.08
42247;BME280;27913;42.722;23.268;2022-10-17T04:23:30;96442.47;;;6.73;75.02
42247;BME280;27913;42.722;23.268;2022-10-17T04:25:57;96452.66;;;6.76;74.93
42247;BME280;27913;42.722;23.268;2022-10-17T04:28:24;96420.47;;;6.55;75.49
42247;BME280;27913;42.722;23.268;2022-10-17T04:31:02;96377.59;;;6.24;75.41
42247;BME280;27913;42.722;23.268;2022-10-17T04:33:28;96192.78;;;5.19;75.25
42247;BME280;27913;42.722;23.268;2022-10-17T04:36:05;96448.81;;;6.71;75.55
42247;BME280;27913;42.722;23.268;2022-10-17T04:38:32;96434.38;;;6.76;75.30
42247;BME280;27913;42.722;23.268;2022-10-17T04:41:04;96338.22;;;6.16;75.22
42247;BME280;27913;42.722;23.268;2022-10-17T04:43:30;96448.28;;;6.77;75.14
42247;BME280;27913;42.722;23.268;2022-10-17T04:46:07;96345.63;;;5.99;74.86
42247;BME280;27913;42.722;23.268;2022-10-17T04:48:33;96381.94;;;6.14;75.73
42247;BME280;27913;42.722;23.268;2022-10-17T04:51:02;96383.03;;;6.11;76.00
42247;BME280;27913;42.722;23.268;2022-10-17T04:53:30;96452.28;;;6.60;75.62
42247;BME280;27913;42.722;23.268;2022-10-17T04:55:56;96448.84;;;6.59;75.75
42247;BME280;27913;42.722;23.268;2022-10-17T04:58:21;96347.66;;;5.96;75.32
42247;BME280;27913;42.722;23.268;2022-10-17T05:00:47;96444.63;;;6.47;74.72
42247;BME280;27913;42.722;23.268;2022-10-17T05:03:13;96429.97;;;6.34;74.49
42247;BME280;27913;42.722;23.268;2022-10-17T05:05:39;96339.09;;;5.72;75.58
42247;BME280;27913;42.722;23.268;2022-10-17T05:08:06;96141.16;;;4.46;74.84
42247;BME280;27913;42.722;23.268;2022-10-17T05:10:43;96287.09;;;5.36;74.84
42247;BME280;27913;42.722;23.268;2022-10-17T05:13:09;96478.22;;;6.51;74.71
42247;BME280;27913;42.722;23.268;2022-10-17T05:15:35;96481.66;;;6.52;74.70
42247;BME280;27913;42.722;23.268;2022-10-17T05:18:01;96435.41;;;6.31;75.00
42247;BME280;27913;42.722;23.268;2022-10-17T05:20:27;96413.53;;;6.11;74.98
42247;BME280;27913;42.722;23.268;2022-10-17T05:22:53;96412.94;;;6.07;75.33
42247;BME280;27913;42.722;23.268;2022-10-17T05:25:18;96490.91;;;6.56;75.28
42247;BME280;27913;42.722;23.268;2022-10-17T05:27:44;96487.13;;;6.60;75.56
42247;BME280;27913;42.722;23.268;2022-10-17T05:30:10;96484.38;;;6.62;75.33
42247;BME280;27913;42.722;23.268;2022-10-17T05:32:36;96333.28;;;5.68;75.82
42247;BME280;27913;42.722;23.268;2022-10-17T05:35:02;96158.66;;;4.67;75.94
42247;BME280;27913;42.722;23.268;2022-10-17T05:37:29;96476.53;;;6.62;76.06
42247;BME280;27913;42.722;23.268;2022-10-17T05:39:55;96186.19;;;4.92;75.79
42247;BME280;27913;42.722;23.268;2022-10-17T05:42:21;96477.16;;;6.75;76.17
42247;BME280;27913;42.722;23.268;2022-10-17T05:44:46;96496.94;;;6.89;75.88
42247;BME280;27913;42.722;23.268;2022-10-17T05:47:12;96214.69;;;5.17;75.62
42247;BME280;27913;42.722;23.268;2022-10-17T05:49:37;96471.38;;;6.72;75.91
42247;BME280;27913;42.722;23.268;2022-10-17T05:52:03;96499.97;;;6.85;76.27
42247;BME280;27913;42.722;23.268;2022-10-17T05:54:28;96507.72;;;6.96;76.03
42247;BME280;27913;42.722;23.268;2022-10-17T05:56:55;96453.56;;;6.44;75.84
42247;BME280;27913;42.722;23.268;2022-10-17T05:59:20;96518.50;;;6.82;76.13
42247;BME280;27913;42.722;23.268;2022-10-17T06:01:46;96496.72;;;6.60;76.34
42247;BME280;27913;42.722;23.268;2022-10-17T06:04:12;96529.13;;;6.69;76.48
42247;BME280;27913;42.722;23.268;2022-10-17T06:06:39;96372.56;;;5.67;76.83
42247;BME280;27913;42.722;23.268;2022-10-17T06:09:05;96537.59;;;6.61;77.17
42247;BME280;27913;42.722;23.268;2022-10-17T06:11:32;96537.81;;;6.69;77.05
42247;BME280;27913;42.722;23.268;2022-10-17T06:13:57;96207.69;;;4.73;76.88
42247;BME280;27913;42.722;23.268;2022-10-17T06:16:23;96515.75;;;6.62;77.03
42247;BME280;27913;42.722;23.268;2022-10-17T06:18:48;96528.44;;;6.67;77.20
42247;BME280;27913;42.722;23.268;2022-10-17T06:21:17;96540.44;;;6.69;77.10
42247;BME280;27913;42.722;23.268;2022-10-17T06:23:43;96544.00;;;6.68;77.20
42247;BME280;27913;42.722;23.268;2022-10-17T06:26:09;96216.81;;;4.79;77.17
42247;BME280;27913;42.722;23.268;2022-10-17T06:28:35;96454.00;;;6.16;77.55
42247;BME280;27913;42.722;23.268;2022-10-17T06:31:14;96244.16;;;4.96;77.37
42247;BME280;27913;42.722;23.268;2022-10-17T06:33:41;96554.91;;;6.73;77.95
42247;BME280;27913;42.722;23.268;2022-10-17T06:36:09;96487.44;;;6.34;78.48
42247;BME280;27913;42.722;23.268;2022-10-17T06:38:35;96233.00;;;4.94;78.33
42247;BME280;27913;42.722;23.268;2022-10-17T06:41:10;96564.38;;;6.86;78.72
42247;BME280;27913;42.722;23.268;2022-10-17T06:43:38;96566.59;;;6.91;78.56
42247;BME280;27913;42.722;23.268;2022-10-17T06:46:04;96555.69;;;6.85;78.72
42247;BME280;27913;42.722;23.268;2022-10-17T06:48:30;96375.13;;;5.78;79.22
42247;BME280;27913;42.722;23.268;2022-10-17T06:51:00;96195.50;;;4.74;78.99
42247;BME280;27913;42.722;23.268;2022-10-17T06:53:27;96441.53;;;6.20;78.89
42247;BME280;27913;42.722;23.268;2022-10-17T06:55:53;96542.91;;;7.04;79.43
42247;BME280;27913;42.722;23.268;2022-10-17T06:58:21;96286.25;;;5.47;78.56
42247;BME280;27913;42.722;23.268;2022-10-17T07:00:46;96521.25;;;7.01;78.54
42247;BME280;27913;42.722;23.268;2022-10-17T07:03:12;96557.63;;;7.26;78.26
42247;BME280;27913;42.722;23.268;2022-10-17T07:05:37;96276.81;;;5.67;77.75
42247;BME280;27913;42.722;23.268;2022-10-17T07:08:06;96549.91;;;7.46;77.64
42247;BME280;27913;42.722;23.268;2022-10-17T07:10:32;96392.78;;;6.52;77.42
42247;BME280;27913;42.722;23.268;2022-10-17T07:13:02;96556.03;;;7.56;77.35
42247;BME280;27913;42.722;23.268;2022-10-17T07:15:28;96563.34;;;7.63;77.19
42247;BME280;27913;42.722;23.268;2022-10-17T07:17:53;96549.75;;;7.69;76.80
42247;BME280;27913;42.722;23.268;2022-10-17T07:20:19;96558.06;;;7.74;76.31
42247;BME280;27913;42.722;23.268;2022-10-17T07:22:44;96556.41;;;7.73;76.56
42247;BME280;27913;42.722;23.268;2022-10-17T07:25:10;96556.72;;;7.80;76.45
42247;BME280;27913;42.722;23.268;2022-10-17T07:27:35;96553.81;;;7.83;76.27
42247;BME280;27913;42.722;23.268;2022-10-17T07:30:01;96526.34;;;7.77;76.45
42247;BME280;27913;42.722;23.268;2022-10-17T07:32:26;96559.94;;;7.93;76.33
42247;BME280;27913;42.722;23.268;2022-10-17T07:34:52;96565.31;;;8.02;76.01
42247;BME280;27913;42.722;23.268;2022-10-17T07:37:18;96505.06;;;7.60;76.18
42247;BME280;27913;42.722;23.268;2022-10-17T07:39:43;96503.97;;;7.63;76.06
42247;BME280;27913;42.722;23.268;2022-10-17T07:42:09;96492.84;;;7.71;75.83
42247;BME280;27913;42.722;23.268;2022-10-17T07:44:34;96239.44;;;6.31;75.78
42247;BME280;27913;42.722;23.268;2022-10-17T07:47:00;96571.63;;;8.30;75.39
42247;BME280;27913;42.722;23.268;2022-10-17T07:49:25;96309.44;;;6.80;75.43
42247;BME280;27913;42.722;23.268;2022-10-17T07:51:51;96565.19;;;8.44;75.26
42247;BME280;27913;42.722;23.268;2022-10-17T07:54:16;96556.63;;;8.52;74.96
42247;BME280;27913;42.722;23.268;2022-10-17T07:56:42;96441.47;;;7.90;74.78
42247;BME280;27913;42.722;23.268;2022-10-17T07:59:08;96454.19;;;8.04;74.46
42247;BME280;27913;42.722;23.268;2022-10-17T08:01:34;96442.88;;;8.14;73.47
42247;BME280;27913;42.722;23.268;2022-10-17T08:03:59;96471.06;;;8.31;73.24
42247;BME280;27913;42.722;23.268;2022-10-17T08:06:25;96516.81;;;8.78;73.46
42247;BME280;27913;42.722;23.268;2022-10-17T08:08:50;96555.88;;;9.11;73.22
42247;BME280;27913;42.722;23.268;2022-10-17T08:11:16;96555.44;;;9.26;72.88
42247;BME280;27913;42.722;23.268;2022-10-17T08:13:42;96559.28;;;9.32;72.01
42247;BME280;27913;42.722;23.268;2022-10-17T08:16:09;96557.06;;;9.37;71.95
42247;BME280;27913;42.722;23.268;2022-10-17T08:18:37;96263.09;;;7.73;71.85
42247;BME280;27913;42.722;23.268;2022-10-17T08:21:04;96440.69;;;8.98;71.81
42247;BME280;27913;42.722;23.268;2022-10-17T08:23:33;96399.44;;;8.80;71.02
42247;BME280;27913;42.722;23.268;2022-10-17T08:26:00;96521.59;;;9.71;70.65
42247;BME280;27913;42.722;23.268;2022-10-17T08:28:26;96542.69;;;9.89;70.20
42247;BME280;27913;42.722;23.268;2022-10-17T08:30:52;96429.69;;;9.33;69.71
42247;BME280;27913;42.722;23.268;2022-10-17T08:33:18;96335.66;;;8.80;69.09
42247;BME280;27913;42.722;23.268;2022-10-17T08:35:44;96474.47;;;9.69;68.60
42247;BME280;27913;42.722;23.268;2022-10-17T08:38:09;96546.28;;;10.16;67.64
42247;BME280;27913;42.722;23.268;2022-10-17T08:40:35;96535.22;;;10.22;67.39
42247;BME280;27913;42.722;23.268;2022-10-17T08:46:01;96529.97;;;10.41;65.93
42247;BME280;27913;42.722;23.268;2022-10-17T08:48:37;96534.38;;;10.50;64.48
42247;BME280;27913;42.722;23.268;2022-10-17T08:51:14;96473.91;;;10.22;64.77
42247;BME280;27913;42.722;23.268;2022-10-17T08:53:54;96481.28;;;10.36;64.43
42247;BME280;27913;42.722;23.268;2022-10-17T08:56:29;96541.75;;;10.83;63.72
42247;BME280;27913;42.722;23.268;2022-10-17T08:58:57;96475.53;;;10.51;64.38
42247;BME280;27913;42.722;23.268;2022-10-17T09:09:58;96547.88;;;11.28;61.05
42247;BME280;27913;42.722;23.268;2022-10-17T09:15:33;96527.88;;;11.44;58.44
42247;BME280;27913;42.722;23.268;2022-10-17T09:20:37;96531.94;;;11.56;53.51
42247;BME280;27913;42.722;23.268;2022-10-17T09:23:50;96466.91;;;11.30;52.13
42247;BME280;27913;42.722;23.268;2022-10-17T09:26:00;96456.69;;;11.27;52.46
42247;BME280;27913;42.722;23.268;2022-10-17T09:28:32;96441.72;;;11.28;50.14
42247;BME280;27913;42.722;23.268;2022-10-17T09:31:05;96513.13;;;11.86;51.32
42247;BME280;27913;42.722;23.268;2022-10-17T09:33:47;96533.81;;;12.07;50.17
42247;BME280;27913;42.722;23.268;2022-10-17T09:36:16;96525.84;;;12.26;49.83
42247;BME280;27913;42.722;23.268;2022-10-17T09:38:48;96454.34;;;11.94;49.69
42247;BME280;27913;42.722;23.268;2022-10-17T09:41:20;96251.25;;;10.75;49.33
42247;BME280;27913;42.722;23.268;2022-10-17T09:43:47;96526.06;;;12.49;47.82
42247;BME280;27913;42.722;23.268;2022-10-17T09:46:24;96464.19;;;12.27;47.38
42247;BME280;27913;42.722;23.268;2022-10-17T09:49:02;96514.72;;;12.65;46.12
42247;BME280;27913;42.722;23.268;2022-10-17T09:51:31;96523.31;;;12.76;45.51
42247;BME280;27913;42.722;23.268;2022-10-17T09:54:00;96520.03;;;12.82;45.34
42247;BME280;27913;42.722;23.268;2022-10-17T09:56:27;96488.19;;;12.75;45.55
42247;BME280;27913;42.722;23.268;2022-10-17T09:58:55;96436.72;;;12.54;44.88
42247;BME280;27913;42.722;23.268;2022-10-17T10:01:29;96266.31;;;11.60;44.52
42247;BME280;27913;42.722;23.268;2022-10-17T10:04:15;96400.41;;;12.56;43.03
42247;BME280;27913;42.722;23.268;2022-10-17T10:07:00;96494.78;;;13.21;42.12
42247;BME280;27913;42.722;23.268;2022-10-17T10:09:29;96494.59;;;13.31;41.73
42247;BME280;27913;42.722;23.268;2022-10-17T10:11:57;96466.22;;;13.16;41.56
42247;BME280;27913;42.722;23.268;2022-10-17T10:14:30;96463.41;;;13.26;41.02
42247;BME280;27913;42.722;23.268;2022-10-17T10:16:58;96482.50;;;13.45;40.61
42247;BME280;27913;42.722;23.268;2022-10-17T10:19:32;96485.16;;;13.45;40.20
42247;BME280;27913;42.722;23.268;2022-10-17T10:22:01;96353.91;;;12.80;40.58
42247;BME280;27913;42.722;23.268;2022-10-17T10:24:27;96481.47;;;13.71;39.45
42247;BME280;27913;42.722;23.268;2022-10-17T10:27:01;96477.81;;;13.72;40.19
42247;BME280;27913;42.722;23.268;2022-10-17T10:29:34;96395.34;;;13.28;36.24
42247;BME280;27913;42.722;23.268;2022-10-17T10:34:52;96390.69;;;13.39;36.67
42247;BME280;27913;42.722;23.268;2022-10-17T10:37:24;96472.88;;;14.09;34.40
42247;BME280;27913;42.722;23.268;2022-10-17T10:39:57;96171.75;;;12.32;33.30
42247;BME280;27913;42.722;23.268;2022-10-17T10:42:31;96416.78;;;13.91;33.64
42247;BME280;27913;42.722;23.268;2022-10-17T10:45:00;96476.00;;;14.21;33.77
42247;BME280;27913;42.722;23.268;2022-10-17T10:47:30;96429.78;;;14.00;33.52
42247;BME280;27913;42.722;23.268;2022-10-17T10:50:45;96400.66;;;14.09;33.62
42247;BME280;27913;42.722;23.268;2022-10-17T10:53:49;96439.41;;;14.48;34.65
42247;BME280;27913;42.722;23.268;2022-10-17T11:04:36;96406.72;;;14.41;35.31
42247;BME280;27913;42.722;23.268;2022-10-17T11:12:23;96438.59;;;14.71;35.59
42247;BME280;27913;42.722;23.268;2022-10-17T11:15:19;96419.03;;;14.72;36.07
42247;BME280;27913;42.722;23.268;2022-10-17T11:18:01;96406.63;;;14.73;36.04
42247;BME280;27913;42.722;23.268;2022-10-17T11:20:31;96371.25;;;14.51;33.71
42247;BME280;27913;42.722;23.268;2022-10-17T11:23:08;96436.28;;;14.92;33.56
42247;BME280;27913;42.722;23.268;2022-10-17T11:25:37;96299.97;;;14.10;34.04
42247;BME280;27913;42.722;23.268;2022-10-17T11:28:12;96427.28;;;15.01;33.50
42247;BME280;27913;42.722;23.268;2022-10-17T11:31:03;96428.56;;;15.05;33.30
42247;BME280;27913;42.722;23.268;2022-10-17T11:36:21;96410.91;;;14.97;35.00
42247;BME280;27913;42.722;23.268;2022-10-17T11:39:18;96409.13;;;15.74;34.60
42247;BME280;27913;42.722;23.268;2022-10-17T11:41:51;96411.13;;;16.67;33.56
42247;BME280;27913;42.722;23.268;2022-10-17T11:44:25;96412.16;;;17.59;31.94
42247;BME280;27913;42.722;23.268;2022-10-17T11:47:02;96427.59;;;17.35;32.35
42247;BME280;27913;42.722;23.268;2022-10-17T11:49:34;96411.34;;;16.73;33.20
42247;BME280;27913;42.722;23.268;2022-10-17T11:52:47;96361.00;;;16.14;33.80
42247;BME280;27913;42.722;23.268;2022-10-17T11:54:53;96341.50;;;15.85;33.70
42247;BME280;27913;42.722;23.268;2022-10-17T11:57:41;96399.00;;;16.14;33.51
42247;BME280;27913;42.722;23.268;2022-10-17T12:03:11;96397.34;;;16.13;32.92
42247;BME280;27913;42.722;23.268;2022-10-17T12:11:05;96343.34;;;15.84;32.66
42247;BME280;27913;42.722;23.268;2022-10-17T12:19:13;96340.56;;;16.08;32.54
42247;BME280;27913;42.722;23.268;2022-10-17T12:22:03;96398.69;;;16.46;32.84
42247;BME280;27913;42.722;23.268;2022-10-17T12:29:48;96334.66;;;16.34;32.66
42247;BME280;27913;42.722;23.268;2022-10-17T12:32:14;96393.84;;;16.78;32.07
42247;BME280;27913;42.722;23.268;2022-10-17T12:34:53;96364.44;;;16.80;31.32
42247;BME280;27913;42.722;23.268;2022-10-17T12:43:31;96159.72;;;15.60;31.46
42247;BME280;27913;42.722;23.268;2022-10-17T12:45:57;96341.53;;;16.79;31.72
42247;BME280;27913;42.722;23.268;2022-10-17T12:51:17;96330.41;;;16.97;31.93
42247;BME280;27913;42.722;23.268;2022-10-17T12:54:07;96261.47;;;16.53;31.97
42247;BME280;27913;42.722;23.268;2022-10-17T12:56:38;96379.31;;;17.32;32.17
42247;BME280;27913;42.722;23.268;2022-10-17T13:01:38;96362.22;;;17.12;31.74
42247;BME280;27913;42.722;23.268;2022-10-17T13:04:08;96246.53;;;16.46;31.32
42247;BME280;27913;42.722;23.268;2022-10-17T13:06:38;96377.66;;;17.31;31.69
42247;BME280;27913;42.722;23.268;2022-10-17T13:09:16;96313.31;;;17.07;31.75
42247;BME280;27913;42.722;23.268;2022-10-17T13:11:43;96377.47;;;17.32;31.82
42247;BME280;27913;42.722;23.268;2022-10-17T13:14:12;96365.22;;;17.38;31.07
42247;BME280;27913;42.722;23.268;2022-10-17T13:19:17;96372.03;;;17.47;30.91
42247;BME280;27913;42.722;23.268;2022-10-17T13:21:58;96371.22;;;17.54;30.90
42247;BME280;27913;42.722;23.268;2022-10-17T13:24:31;96365.31;;;17.58;30.97
42247;BME280;27913;42.722;23.268;2022-10-17T13:26:58;96322.53;;;17.46;30.41
42247;BME280;27913;42.722;23.268;2022-10-17T13:29:24;96377.28;;;17.83;30.58
42247;BME280;27913;42.722;23.268;2022-10-17T13:31:56;96370.34;;;17.89;30.50
42247;BME280;27913;42.722;23.268;2022-10-17T13:34:25;96318.88;;;17.61;30.45
42247;BME280;27913;42.722;23.268;2022-10-17T13:37:02;96260.53;;;17.39;30.34
42247;BME280;27913;42.722;23.268;2022-10-17T13:39:32;96313.84;;;17.80;30.26
42247;BME280;27913;42.722;23.268;2022-10-17T13:41:58;96316.50;;;17.80;30.29
42247;BME280;27913;42.722;23.268;2022-10-17T13:44:26;96107.06;;;16.50;30.36
42247;BME280;27913;42.722;23.268;2022-10-17T13:46:52;96122.84;;;16.58;30.18
42247;BME280;27913;42.722;23.268;2022-10-17T13:49:40;96370.25;;;18.24;30.14
42247;BME280;27913;42.722;23.268;2022-10-17T13:52:14;96385.63;;;18.22;30.35
42247;BME280;27913;42.722;23.268;2022-10-17T13:54:44;96309.97;;;17.96;30.63
42247;BME280;27913;42.722;23.268;2022-10-17T13:57:22;96366.59;;;18.32;29.91
42247;BME280;27913;42.722;23.268;2022-10-17T13:59:53;96380.72;;;18.46;29.96
42247;BME280;27913;42.722;23.268;2022-10-17T14:02:23;96380.31;;;18.56;29.72
42247;BME280;27913;42.722;23.268;2022-10-17T14:07:39;96382.56;;;18.32;32.51
42247;BME280;27913;42.722;23.268;2022-10-17T14:10:20;96318.16;;;17.94;33.35
42247;BME280;27913;42.722;23.268;2022-10-17T14:12:46;96329.44;;;18.03;33.11
42247;BME280;27913;42.722;23.268;2022-10-17T14:15:15;96378.84;;;18.33;32.96
42247;BME280;27913;42.722;23.268;2022-10-17T14:17:44;96289.47;;;17.69;33.12
42247;BME280;27913;42.722;23.268;2022-10-17T14:20:18;96291.72;;;17.72;33.22
42247;BME280;27913;42.722;23.268;2022-10-17T14:22:45;96340.06;;;17.90;33.18
42247;BME280;27913;42.722;23.268;2022-10-17T14:25:35;96197.88;;;17.16;33.14
42247;BME280;27913;42.722;23.268;2022-10-17T14:28:12;96385.22;;;18.32;33.33
42247;BME280;27913;42.722;23.268;2022-10-17T14:30:42;96379.06;;;18.31;33.67
42247;BME280;27913;42.722;23.268;2022-10-17T14:33:14;96296.84;;;17.74;33.48
42247;BME280;27913;42.722;23.268;2022-10-17T14:35:54;96396.81;;;18.10;33.52
42247;BME280;27913;42.722;23.268;2022-10-17T14:38:20;96288.06;;;17.24;34.12
42247;BME280;27913;42.722;23.268;2022-10-17T14:40:52;96388.50;;;17.78;34.63
42247;BME280;27913;42.722;23.268;2022-10-17T14:43:21;96185.31;;;16.54;34.64
42247;BME280;27913;42.722;23.268;2022-10-17T14:45:48;96393.38;;;17.68;35.22
42247;BME280;27913;42.722;23.268;2022-10-17T14:48:16;96256.28;;;16.67;35.79
42247;BME280;27913;42.722;23.268;2022-10-17T14:53:34;96407.53;;;17.04;37.03
42247;BME280;27913;42.722;23.268;2022-10-17T14:56:02;96361.44;;;16.61;37.50
42247;BME280;27913;42.722;23.268;2022-10-17T14:58:30;96409.44;;;16.60;37.98